sensor_id;sensor_type;location;lat;lon;timestamp;P1;durP1;ratioP1;P2;durP2;ratioP2
10605;SDS011;5350;42.698;23.148;2024-01-06T00:01:55;11.13;;;7.33;;
10605;SDS011;5350;42.698;23.148;2024-01-06T00:04:21;9.80;;;4.67;;
10605;SDS011;5350;42.698;23.148;2024-01-06T00:06:48;5.83;;;2.73;;
10605;SDS011;5350;42.698;23.148;2024-01-06T00:09:15;9.17;;;5.83;;
10605;SDS011;5350;42.698;23.148;2024-01-06T00:11:41;9.23;;;6.20;;
10605;SDS011;5350;42.698;23.148;2024-01-06T00:14:10;13.37;;;6.83;;
10605;SDS011;5350;42.698;23.148;2024-01-06T00:16:36;12.47;;;7.87;;
10605;SDS011;5350;42.698;23.148;2024-01-06T00:19:03;14.77;;;8.17;;
10605;SDS011;5350;42.698;23.148;2024-01-06T00:21:30;11.20;;;6.97;;
10605;SDS011;5350;42.698;23.148;2024-01-06T00:23:57;11.93;;;6.57;;
10605;SDS011;5350;42.698;23.148;2024-01-06T00:26:23;7.83;;;5.63;;
10605;SDS011;5350;42.698;23.148;2024-01-06T00:28:50;4.27;;;3.43;;
10605;SDS011;5350;42.698;23.148;2024-01-06T00:31:18;11.73;;;7.70;;
10605;SDS011;5350;42.698;23.148;2024-01-06T00:33:45;2.47;;;1.90;;
10605;SDS011;5350;42.698;23.148;2024-01-06T00:36:12;4.23;;;2.33;;
10605;SDS011;5350;42.698;23.148;2024-01-06T00:38:39;17.57;;;9.47;;
10605;SDS011;5350;42.698;23.148;2024-01-06T00:41:05;14.60;;;8.13;;
10605;SDS011;5350;42.698;23.148;2024-01-06T00:43:32;24.63;;;12.90;;
10605;SDS011;5350;42.698;23.148;2024-01-06T00:45:59;31.47;;;17.17;;
10605;SDS011;5350;42.698;23.148;2024-01-06T00:48:27;22.07;;;12.60;;
10605;SDS011;5350;42.698;23.148;2024-01-06T00:50:54;13.87;;;8.10;;
10605;SDS011;5350;42.698;23.148;2024-01-06T00:53:21;8.60;;;5.50;;
10605;SDS011;5350;42.698;23.148;2024-01-06T00:55:48;11.00;;;7.20;;
10605;SDS011;5350;42.698;23.148;2024-01-06T00:58:14;19.17;;;10.63;;
10605;SDS011;5350;42.698;23.148;2024-01-06T01:00:41;11.90;;;7.80;;
10605;SDS011;5350;42.698;23.148;2024-01-06T01:03:08;10.83;;;5.87;;
10605;SDS011;5350;42.698;23.148;2024-01-06T01:05:36;13.30;;;7.43;;
10605;SDS011;5350;42.698;23.148;2024-01-06T01:08:03;16.00;;;8.70;;
10605;SDS011;5350;42.698;23.148;2024-01-06T01:10:30;13.70;;;8.87;;
10605;SDS011;5350;42.698;23.148;2024-01-06T01:12:57;13.70;;;8.93;;
10605;SDS011;5350;42.698;23.148;2024-01-06T01:15:23;13.00;;;8.97;;
10605;SDS011;5350;42.698;23.148;2024-01-06T01:17:50;14.90;;;9.20;;
10605;SDS011;5350;42.698;23.148;2024-01-06T01:20:17;14.33;;;7.60;;
10605;SDS011;5350;42.698;23.148;2024-01-06T01:22:45;14.60;;;8.57;;
10605;SDS011;5350;42.698;23.148;2024-01-06T01:25:12;14.53;;;8.50;;
10605;SDS011;5350;42.698;23.148;2024-01-06T01:27:38;15.57;;;9.70;;
10605;SDS011;5350;42.698;23.148;2024-01-06T01:30:06;16.30;;;9.63;;
10605;SDS011;5350;42.698;23.148;2024-01-06T01:32:33;16.87;;;8.77;;
10605;SDS011;5350;42.698;23.148;2024-01-06T01:35:00;14.23;;;8.83;;
10605;SDS011;5350;42.698;23.148;2024-01-06T01:37:26;14.63;;;8.70;;
10605;SDS011;5350;42.698;23.148;2024-01-06T01:39:54;14.63;;;9.30;;
10605;SDS011;5350;42.698;23.148;2024-01-06T01:42:21;15.63;;;9.33;;
10605;SDS011;5350;42.698;23.148;2024-01-06T01:44:48;11.10;;;7.23;;
10605;SDS011;5350;42.698;23.148;2024-01-06T01:47:14;5.13;;;2.20;;
10605;SDS011;5350;42.698;23.148;2024-01-06T01:49:43;3.53;;;2.53;;
10605;SDS011;5350;42.698;23.148;2024-01-06T01:52:11;4.63;;;2.60;;
10605;SDS011;5350;42.698;23.148;2024-01-06T01:54:39;5.90;;;3.77;;
10605;SDS011;5350;42.698;23.148;2024-01-06T01:57:07;10.10;;;4.33;;
10605;SDS011;5350;42.698;23.148;2024-01-06T01:59:35;9.97;;;4.10;;
10605;SDS011;5350;42.698;23.148;2024-01-06T02:02:03;6.57;;;3.73;;
10605;SDS011;5350;42.698;23.148;2024-01-06T02:04:30;3.40;;;2.60;;
10605;SDS011;5350;42.698;23.148;2024-01-06T02:06:57;6.30;;;3.20;;
10605;SDS011;5350;42.698;23.148;2024-01-06T02:09:23;3.10;;;2.50;;
10605;SDS011;5350;42.698;23.148;2024-01-06T02:11:54;4.37;;;2.70;;
10605;SDS011;5350;42.698;23.148;2024-01-06T02:14:22;5.67;;;2.30;;
10605;SDS011;5350;42.698;23.148;2024-01-06T02:16:49;7.23;;;2.90;;
10605;SDS011;5350;42.698;23.148;2024-01-06T02:19:15;6.33;;;3.13;;
10605;SDS011;5350;42.698;23.148;2024-01-06T02:21:43;7.53;;;3.80;;
10605;SDS011;5350;42.698;23.148;2024-01-06T02:24:11;6.07;;;3.53;;
10605;SDS011;5350;42.698;23.148;2024-01-06T02:26:38;10.70;;;4.90;;
10605;SDS011;5350;42.698;23.148;2024-01-06T02:29:05;11.97;;;6.80;;
10605;SDS011;5350;42.698;23.148;2024-01-06T02:31:32;6.53;;;3.50;;
10605;SDS011;5350;42.698;23.148;2024-01-06T02:33:58;4.50;;;2.90;;
10605;SDS011;5350;42.698;23.148;2024-01-06T02:36:25;6.03;;;3.23;;
10605;SDS011;5350;42.698;23.148;2024-01-06T02:38:52;9.13;;;4.93;;
10605;SDS011;5350;42.698;23.148;2024-01-06T02:41:20;11.43;;;6.60;;
10605;SDS011;5350;42.698;23.148;2024-01-06T02:43:46;14.53;;;8.97;;
10605;SDS011;5350;42.698;23.148;2024-01-06T02:46:13;11.53;;;7.77;;
10605;SDS011;5350;42.698;23.148;2024-01-06T02:48:40;13.63;;;8.30;;
10605;SDS011;5350;42.698;23.148;2024-01-06T02:51:07;10.67;;;7.63;;
10605;SDS011;5350;42.698;23.148;2024-01-06T02:53:33;11.00;;;7.00;;
10605;SDS011;5350;42.698;23.148;2024-01-06T02:56:00;12.47;;;7.97;;
10605;SDS011;5350;42.698;23.148;2024-01-06T02:58:28;12.47;;;8.17;;
10605;SDS011;5350;42.698;23.148;2024-01-06T03:00:55;17.20;;;9.33;;
10605;SDS011;5350;42.698;23.148;2024-01-06T03:03:20;18.10;;;11.07;;
10605;SDS011;5350;42.698;23.148;2024-01-06T03:05:47;18.73;;;10.87;;
10605;SDS011;5350;42.698;23.148;2024-01-06T03:08:14;14.97;;;8.53;;
10605;SDS011;5350;42.698;23.148;2024-01-06T03:10:41;12.93;;;7.40;;
10605;SDS011;5350;42.698;23.148;2024-01-06T03:13:08;11.77;;;7.20;;
10605;SDS011;5350;42.698;23.148;2024-01-06T03:15:36;12.07;;;7.63;;
10605;SDS011;5350;42.698;23.148;2024-01-06T03:18:03;14.37;;;7.70;;
10605;SDS011;5350;42.698;23.148;2024-01-06T03:20:30;9.50;;;4.77;;
10605;SDS011;5350;42.698;23.148;2024-01-06T03:22:57;6.87;;;4.13;;
10605;SDS011;5350;42.698;23.148;2024-01-06T03:25:24;9.70;;;6.37;;
10605;SDS011;5350;42.698;23.148;2024-01-06T03:27:50;10.87;;;6.70;;
10605;SDS011;5350;42.698;23.148;2024-01-06T03:30:17;9.77;;;6.83;;
10605;SDS011;5350;42.698;23.148;2024-01-06T03:32:45;10.83;;;7.10;;
10605;SDS011;5350;42.698;23.148;2024-01-06T03:35:12;11.53;;;7.13;;
10605;SDS011;5350;42.698;23.148;2024-01-06T03:37:40;11.50;;;8.23;;
10605;SDS011;5350;42.698;23.148;2024-01-06T03:40:08;13.23;;;8.40;;
10605;SDS011;5350;42.698;23.148;2024-01-06T03:42:35;14.53;;;9.30;;
10605;SDS011;5350;42.698;23.148;2024-01-06T03:45:02;14.17;;;9.00;;
10605;SDS011;5350;42.698;23.148;2024-01-06T03:47:29;12.50;;;8.50;;
10605;SDS011;5350;42.698;23.148;2024-01-06T03:49:58;14.67;;;8.77;;
10605;SDS011;5350;42.698;23.148;2024-01-06T03:52:24;15.37;;;10.00;;
10605;SDS011;5350;42.698;23.148;2024-01-06T03:54:51;20.80;;;10.63;;
10605;SDS011;5350;42.698;23.148;2024-01-06T03:57:18;14.07;;;10.30;;
10605;SDS011;5350;42.698;23.148;2024-01-06T03:59:44;13.30;;;9.40;;
10605;SDS011;5350;42.698;23.148;2024-01-06T04:02:11;20.03;;;10.20;;
10605;SDS011;5350;42.698;23.148;2024-01-06T04:04:38;14.13;;;9.83;;
10605;SDS011;5350;42.698;23.148;2024-01-06T04:07:06;6.27;;;2.60;;
10605;SDS011;5350;42.698;23.148;2024-01-06T04:09:33;1.70;;;0.80;;
10605;SDS011;5350;42.698;23.148;2024-01-06T04:11:59;3.27;;;2.33;;
10605;SDS011;5350;42.698;23.148;2024-01-06T04:14:27;1.13;;;0.80;;
10605;SDS011;5350;42.698;23.148;2024-01-06T04:16:53;2.37;;;0.60;;
10605;SDS011;5350;42.698;23.148;2024-01-06T04:19:21;2.87;;;0.63;;
10605;SDS011;5350;42.698;23.148;2024-01-06T04:21:48;1.77;;;0.70;;
10605;SDS011;5350;42.698;23.148;2024-01-06T04:24:16;1.13;;;0.70;;
10605;SDS011;5350;42.698;23.148;2024-01-06T04:26:43;2.97;;;1.87;;
10605;SDS011;5350;42.698;23.148;2024-01-06T04:29:11;6.53;;;3.70;;
10605;SDS011;5350;42.698;23.148;2024-01-06T04:31:38;4.77;;;2.97;;
10605;SDS011;5350;42.698;23.148;2024-01-06T04:34:04;7.20;;;3.90;;
10605;SDS011;5350;42.698;23.148;2024-01-06T04:36:31;10.37;;;5.27;;
10605;SDS011;5350;42.698;23.148;2024-01-06T04:38:58;7.63;;;4.60;;
10605;SDS011;5350;42.698;23.148;2024-01-06T04:41:26;12.33;;;5.43;;
10605;SDS011;5350;42.698;23.148;2024-01-06T04:43:53;7.97;;;4.10;;
10605;SDS011;5350;42.698;23.148;2024-01-06T04:46:19;4.70;;;3.13;;
10605;SDS011;5350;42.698;23.148;2024-01-06T04:48:47;7.00;;;3.63;;
10605;SDS011;5350;42.698;23.148;2024-01-06T04:51:13;5.80;;;3.67;;
10605;SDS011;5350;42.698;23.148;2024-01-06T04:53:40;7.30;;;4.53;;
10605;SDS011;5350;42.698;23.148;2024-01-06T04:56:07;9.17;;;4.97;;
10605;SDS011;5350;42.698;23.148;2024-01-06T04:58:35;9.03;;;6.67;;
10605;SDS011;5350;42.698;23.148;2024-01-06T05:01:02;12.03;;;6.90;;
10605;SDS011;5350;42.698;23.148;2024-01-06T05:03:29;16.37;;;9.23;;
10605;SDS011;5350;42.698;23.148;2024-01-06T05:05:56;15.80;;;9.07;;
10605;SDS011;5350;42.698;23.148;2024-01-06T05:08:22;11.83;;;8.60;;
10605;SDS011;5350;42.698;23.148;2024-01-06T05:10:51;15.00;;;9.40;;
10605;SDS011;5350;42.698;23.148;2024-01-06T05:13:18;14.63;;;9.70;;
10605;SDS011;5350;42.698;23.148;2024-01-06T05:15:47;13.73;;;9.57;;
10605;SDS011;5350;42.698;23.148;2024-01-06T05:18:13;14.33;;;8.53;;
10605;SDS011;5350;42.698;23.148;2024-01-06T05:20:40;13.50;;;8.77;;
10605;SDS011;5350;42.698;23.148;2024-01-06T05:23:07;11.67;;;7.60;;
10605;SDS011;5350;42.698;23.148;2024-01-06T05:25:34;13.27;;;7.57;;
10605;SDS011;5350;42.698;23.148;2024-01-06T05:28:00;10.47;;;7.93;;
10605;SDS011;5350;42.698;23.148;2024-01-06T05:30:27;11.70;;;7.57;;
10605;SDS011;5350;42.698;23.148;2024-01-06T05:32:55;16.17;;;9.20;;
10605;SDS011;5350;42.698;23.148;2024-01-06T05:35:22;15.27;;;8.90;;
10605;SDS011;5350;42.698;23.148;2024-01-06T05:37:49;15.50;;;9.23;;
10605;SDS011;5350;42.698;23.148;2024-01-06T05:40:16;11.47;;;7.03;;
10605;SDS011;5350;42.698;23.148;2024-01-06T05:42:42;14.77;;;9.27;;
10605;SDS011;5350;42.698;23.148;2024-01-06T05:45:10;16.80;;;9.27;;
10605;SDS011;5350;42.698;23.148;2024-01-06T05:47:37;14.67;;;9.33;;
10605;SDS011;5350;42.698;23.148;2024-01-06T05:50:06;15.80;;;10.53;;
10605;SDS011;5350;42.698;23.148;2024-01-06T05:52:34;17.97;;;10.87;;
10605;SDS011;5350;42.698;23.148;2024-01-06T05:55:01;16.80;;;10.60;;
10605;SDS011;5350;42.698;23.148;2024-01-06T05:57:27;17.90;;;10.73;;
10605;SDS011;5350;42.698;23.148;2024-01-06T05:59:54;18.57;;;10.90;;
10605;SDS011;5350;42.698;23.148;2024-01-06T06:02:21;15.17;;;10.17;;
10605;SDS011;5350;42.698;23.148;2024-01-06T06:04:48;21.27;;;12.67;;
10605;SDS011;5350;42.698;23.148;2024-01-06T06:07:16;14.93;;;10.57;;
10605;SDS011;5350;42.698;23.148;2024-01-06T06:09:42;16.37;;;10.43;;
10605;SDS011;5350;42.698;23.148;2024-01-06T06:12:12;18.70;;;9.80;;
10605;SDS011;5350;42.698;23.148;2024-01-06T06:14:39;17.27;;;11.23;;
10605;SDS011;5350;42.698;23.148;2024-01-06T06:17:07;20.73;;;13.13;;
10605;SDS011;5350;42.698;23.148;2024-01-06T06:19:34;16.93;;;10.43;;
10605;SDS011;5350;42.698;23.148;2024-01-06T06:22:00;16.60;;;11.40;;
10605;SDS011;5350;42.698;23.148;2024-01-06T06:24:28;19.30;;;10.70;;
10605;SDS011;5350;42.698;23.148;2024-01-06T06:26:56;14.83;;;10.70;;
10605;SDS011;5350;42.698;23.148;2024-01-06T06:29:22;15.00;;;9.77;;
10605;SDS011;5350;42.698;23.148;2024-01-06T06:31:49;16.00;;;10.57;;
10605;SDS011;5350;42.698;23.148;2024-01-06T06:34:16;17.20;;;10.87;;
10605;SDS011;5350;42.698;23.148;2024-01-06T06:36:42;14.60;;;10.17;;
10605;SDS011;5350;42.698;23.148;2024-01-06T06:39:09;17.57;;;10.93;;
10605;SDS011;5350;42.698;23.148;2024-01-06T06:41:38;41.30;;;34.33;;
10605;SDS011;5350;42.698;23.148;2024-01-06T06:44:04;19.03;;;14.43;;
10605;SDS011;5350;42.698;23.148;2024-01-06T06:46:31;15.33;;;11.30;;
10605;SDS011;5350;42.698;23.148;2024-01-06T06:48:58;18.97;;;11.73;;
10605;SDS011;5350;42.698;23.148;2024-01-06T06:51:24;17.77;;;11.47;;
10605;SDS011;5350;42.698;23.148;2024-01-06T06:53:52;15.63;;;10.20;;
10605;SDS011;5350;42.698;23.148;2024-01-06T06:56:19;17.73;;;11.67;;
10605;SDS011;5350;42.698;23.148;2024-01-06T06:58:47;18.13;;;10.83;;
10605;SDS011;5350;42.698;23.148;2024-01-06T07:01:14;15.77;;;10.83;;
10605;SDS011;5350;42.698;23.148;2024-01-06T07:03:41;16.90;;;11.40;;
10605;SDS011;5350;42.698;23.148;2024-01-06T07:06:07;16.53;;;12.50;;
10605;SDS011;5350;42.698;23.148;2024-01-06T07:08:34;21.33;;;14.13;;
10605;SDS011;5350;42.698;23.148;2024-01-06T07:11:03;18.20;;;12.97;;
10605;SDS011;5350;42.698;23.148;2024-01-06T07:13:30;14.20;;;10.70;;
10605;SDS011;5350;42.698;23.148;2024-01-06T07:15:58;16.93;;;11.70;;
10605;SDS011;5350;42.698;23.148;2024-01-06T07:18:25;15.13;;;10.20;;
10605;SDS011;5350;42.698;23.148;2024-01-06T07:20:51;13.37;;;10.07;;
10605;SDS011;5350;42.698;23.148;2024-01-06T07:23:18;15.90;;;9.60;;
10605;SDS011;5350;42.698;23.148;2024-01-06T07:25:45;15.80;;;10.30;;
10605;SDS011;5350;42.698;23.148;2024-01-06T07:28:11;18.20;;;12.20;;
10605;SDS011;5350;42.698;23.148;2024-01-06T07:30:38;19.07;;;12.53;;
10605;SDS011;5350;42.698;23.148;2024-01-06T07:33:06;20.17;;;10.73;;
10605;SDS011;5350;42.698;23.148;2024-01-06T07:35:33;17.50;;;11.50;;
10605;SDS011;5350;42.698;23.148;2024-01-06T07:38:00;59.13;;;37.13;;
10605;SDS011;5350;42.698;23.148;2024-01-06T07:40:27;18.37;;;10.53;;
10605;SDS011;5350;42.698;23.148;2024-01-06T07:42:53;16.87;;;11.17;;
10605;SDS011;5350;42.698;23.148;2024-01-06T07:45:20;16.67;;;10.13;;
10605;SDS011;5350;42.698;23.148;2024-01-06T07:47:47;17.47;;;10.83;;
10605;SDS011;5350;42.698;23.148;2024-01-06T07:50:15;16.07;;;10.93;;
10605;SDS011;5350;42.698;23.148;2024-01-06T07:52:41;16.93;;;11.00;;
10605;SDS011;5350;42.698;23.148;2024-01-06T07:55:08;19.40;;;11.20;;
10605;SDS011;5350;42.698;23.148;2024-01-06T07:57:35;17.27;;;10.63;;
10605;SDS011;5350;42.698;23.148;2024-01-06T08:00:02;16.47;;;10.60;;
10605;SDS011;5350;42.698;23.148;2024-01-06T08:02:29;15.50;;;10.63;;
10605;SDS011;5350;42.698;23.148;2024-01-06T08:04:55;16.67;;;10.60;;
10605;SDS011;5350;42.698;23.148;2024-01-06T08:07:23;20.73;;;16.90;;
10605;SDS011;5350;42.698;23.148;2024-01-06T08:09:50;14.83;;;9.40;;
10605;SDS011;5350;42.698;23.148;2024-01-06T08:12:17;13.80;;;7.80;;
10605;SDS011;5350;42.698;23.148;2024-01-06T08:14:43;18.93;;;10.77;;
10605;SDS011;5350;42.698;23.148;2024-01-06T08:17:10;11.93;;;8.83;;
10605;SDS011;5350;42.698;23.148;2024-01-06T08:19:37;10.70;;;6.30;;
10605;SDS011;5350;42.698;23.148;2024-01-06T08:22:04;7.43;;;5.63;;
10605;SDS011;5350;42.698;23.148;2024-01-06T08:24:32;17.03;;;9.80;;
10605;SDS011;5350;42.698;23.148;2024-01-06T08:26:59;26.30;;;17.97;;
10605;SDS011;5350;42.698;23.148;2024-01-06T08:29:25;25.50;;;19.47;;
10605;SDS011;5350;42.698;23.148;2024-01-06T08:31:52;32.40;;;24.93;;
10605;SDS011;5350;42.698;23.148;2024-01-06T08:34:19;21.70;;;16.33;;
10605;SDS011;5350;42.698;23.148;2024-01-06T08:36:46;12.40;;;8.40;;
10605;SDS011;5350;42.698;23.148;2024-01-06T08:39:13;9.47;;;7.63;;
10605;SDS011;5350;42.698;23.148;2024-01-06T08:41:41;11.37;;;7.90;;
10605;SDS011;5350;42.698;23.148;2024-01-06T08:44:08;22.83;;;16.43;;
10605;SDS011;5350;42.698;23.148;2024-01-06T08:46:35;21.63;;;11.60;;
10605;SDS011;5350;42.698;23.148;2024-01-06T08:49:01;26.63;;;18.60;;
10605;SDS011;5350;42.698;23.148;2024-01-06T08:51:28;17.87;;;12.90;;
10605;SDS011;5350;42.698;23.148;2024-01-06T08:53:56;16.77;;;11.40;;
10605;SDS011;5350;42.698;23.148;2024-01-06T08:56:22;10.60;;;7.53;;
10605;SDS011;5350;42.698;23.148;2024-01-06T08:58:51;11.87;;;8.23;;
10605;SDS011;5350;42.698;23.148;2024-01-06T09:01:17;11.17;;;7.73;;
10605;SDS011;5350;42.698;23.148;2024-01-06T09:03:44;11.23;;;8.17;;
10605;SDS011;5350;42.698;23.148;2024-01-06T09:06:11;11.50;;;8.30;;
10605;SDS011;5350;42.698;23.148;2024-01-06T09:08:38;13.67;;;7.97;;
10605;SDS011;5350;42.698;23.148;2024-01-06T09:11:05;13.33;;;9.57;;
10605;SDS011;5350;42.698;23.148;2024-01-06T09:13:32;17.90;;;9.90;;
10605;SDS011;5350;42.698;23.148;2024-01-06T09:16:00;28.37;;;15.03;;
10605;SDS011;5350;42.698;23.148;2024-01-06T09:18:27;21.37;;;14.13;;
10605;SDS011;5350;42.698;23.148;2024-01-06T09:20:53;22.87;;;13.40;;
10605;SDS011;5350;42.698;23.148;2024-01-06T09:23:21;20.13;;;13.87;;
10605;SDS011;5350;42.698;23.148;2024-01-06T09:25:48;26.63;;;18.13;;
10605;SDS011;5350;42.698;23.148;2024-01-06T09:28:17;19.57;;;13.77;;
10605;SDS011;5350;42.698;23.148;2024-01-06T09:30:43;23.87;;;14.57;;
10605;SDS011;5350;42.698;23.148;2024-01-06T09:33:12;20.80;;;15.37;;
10605;SDS011;5350;42.698;23.148;2024-01-06T09:35:40;25.20;;;16.73;;
10605;SDS011;5350;42.698;23.148;2024-01-06T09:38:07;24.23;;;16.67;;
10605;SDS011;5350;42.698;23.148;2024-01-06T09:40:34;26.53;;;15.87;;
10605;SDS011;5350;42.698;23.148;2024-01-06T09:43:01;21.83;;;16.57;;
10605;SDS011;5350;42.698;23.148;2024-01-06T09:45:28;20.00;;;15.80;;
10605;SDS011;5350;42.698;23.148;2024-01-06T09:47:55;23.57;;;15.50;;
10605;SDS011;5350;42.698;23.148;2024-01-06T09:50:25;20.70;;;15.30;;
10605;SDS011;5350;42.698;23.148;2024-01-06T09:52:52;26.80;;;18.17;;
10605;SDS011;5350;42.698;23.148;2024-01-06T09:55:29;25.00;;;18.03;;
10605;SDS011;5350;42.698;23.148;2024-01-06T09:57:55;25.60;;;16.93;;
10605;SDS011;5350;42.698;23.148;2024-01-06T10:00:22;25.60;;;17.70;;
10605;SDS011;5350;42.698;23.148;2024-01-06T10:02:50;24.10;;;17.37;;
10605;SDS011;5350;42.698;23.148;2024-01-06T10:05:17;27.50;;;19.57;;
10605;SDS011;5350;42.698;23.148;2024-01-06T10:07:46;25.77;;;17.60;;
10605;SDS011;5350;42.698;23.148;2024-01-06T10:10:13;25.43;;;17.80;;
10605;SDS011;5350;42.698;23.148;2024-01-06T10:12:40;25.33;;;16.67;;
10605;SDS011;5350;42.698;23.148;2024-01-06T10:15:09;24.70;;;17.63;;
10605;SDS011;5350;42.698;23.148;2024-01-06T10:17:36;29.03;;;18.37;;
10605;SDS011;5350;42.698;23.148;2024-01-06T10:20:06;25.57;;;18.97;;
10605;SDS011;5350;42.698;23.148;2024-01-06T10:22:35;28.67;;;19.50;;
10605;SDS011;5350;42.698;23.148;2024-01-06T10:25:03;25.97;;;17.90;;
10605;SDS011;5350;42.698;23.148;2024-01-06T10:27:33;25.97;;;17.10;;
10605;SDS011;5350;42.698;23.148;2024-01-06T10:30:00;25.50;;;17.80;;
10605;SDS011;5350;42.698;23.148;2024-01-06T10:32:30;27.33;;;18.40;;
10605;SDS011;5350;42.698;23.148;2024-01-06T10:34:56;27.90;;;19.40;;
10605;SDS011;5350;42.698;23.148;2024-01-06T10:37:23;33.10;;;22.13;;
10605;SDS011;5350;42.698;23.148;2024-01-06T10:42:37;28.37;;;20.97;;
10605;SDS011;5350;42.698;23.148;2024-01-06T10:45:06;31.30;;;20.37;;
10605;SDS011;5350;42.698;23.148;2024-01-06T10:47:35;30.40;;;19.03;;
10605;SDS011;5350;42.698;23.148;2024-01-06T10:50:02;27.80;;;18.70;;
10605;SDS011;5350;42.698;23.148;2024-01-06T10:52:29;27.47;;;18.67;;
10605;SDS011;5350;42.698;23.148;2024-01-06T10:54:56;24.63;;;17.87;;
10605;SDS011;5350;42.698;23.148;2024-01-06T10:57:25;24.93;;;17.83;;
10605;SDS011;5350;42.698;23.148;2024-01-06T10:59:53;33.43;;;18.43;;
10605;SDS011;5350;42.698;23.148;2024-01-06T11:02:20;22.03;;;17.00;;
10605;SDS011;5350;42.698;23.148;2024-01-06T11:04:47;25.93;;;17.47;;
10605;SDS011;5350;42.698;23.148;2024-01-06T11:07:16;31.13;;;19.60;;
10605;SDS011;5350;42.698;23.148;2024-01-06T11:09:47;30.30;;;19.73;;
10605;SDS011;5350;42.698;23.148;2024-01-06T11:12:18;32.77;;;19.77;;
10605;SDS011;5350;42.698;23.148;2024-01-06T11:14:47;32.63;;;21.83;;
10605;SDS011;5350;42.698;23.148;2024-01-06T11:17:15;33.10;;;20.87;;
10605;SDS011;5350;42.698;23.148;2024-01-06T11:20:18;27.40;;;20.37;;
10605;SDS011;5350;42.698;23.148;2024-01-06T11:22:46;32.47;;;20.30;;
10605;SDS011;5350;42.698;23.148;2024-01-06T11:25:14;25.60;;;17.30;;
10605;SDS011;5350;42.698;23.148;2024-01-06T11:27:42;22.80;;;16.50;;
10605;SDS011;5350;42.698;23.148;2024-01-06T11:30:18;20.37;;;14.23;;
10605;SDS011;5350;42.698;23.148;2024-01-06T11:32:46;21.10;;;14.45;;
10605;SDS011;5350;42.698;23.148;2024-01-06T11:35:13;21.07;;;13.23;;
10605;SDS011;5350;42.698;23.148;2024-01-06T11:37:50;19.47;;;12.50;;
10605;SDS011;5350;42.698;23.148;2024-01-06T11:40:30;18.10;;;12.07;;
10605;SDS011;5350;42.698;23.148;2024-01-06T11:42:59;19.50;;;10.43;;
10605;SDS011;5350;42.698;23.148;2024-01-06T11:45:29;17.17;;;11.10;;
10605;SDS011;5350;42.698;23.148;2024-01-06T11:47:57;16.83;;;10.27;;
10605;SDS011;5350;42.698;23.148;2024-01-06T11:50:27;16.00;;;10.90;;
10605;SDS011;5350;42.698;23.148;2024-01-06T11:52:55;18.17;;;11.90;;
10605;SDS011;5350;42.698;23.148;2024-01-06T11:55:21;17.33;;;12.07;;
10605;SDS011;5350;42.698;23.148;2024-01-06T11:57:48;23.37;;;15.10;;
10605;SDS011;5350;42.698;23.148;2024-01-06T12:00:16;20.37;;;13.13;;
10605;SDS011;5350;42.698;23.148;2024-01-06T12:02:44;16.50;;;11.50;;
10605;SDS011;5350;42.698;23.148;2024-01-06T12:05:14;20.70;;;12.43;;
10605;SDS011;5350;42.698;23.148;2024-01-06T12:07:43;18.20;;;9.63;;
10605;SDS011;5350;42.698;23.148;2024-01-06T12:10:10;18.90;;;11.73;;
10605;SDS011;5350;42.698;23.148;2024-01-06T12:12:37;19.70;;;9.60;;
10605;SDS011;5350;42.698;23.148;2024-01-06T12:15:04;15.73;;;10.50;;
10605;SDS011;5350;42.698;23.148;2024-01-06T12:17:34;17.27;;;10.97;;
10605;SDS011;5350;42.698;23.148;2024-01-06T12:20:03;15.30;;;10.37;;
10605;SDS011;5350;42.698;23.148;2024-01-06T12:22:30;14.30;;;9.97;;
10605;SDS011;5350;42.698;23.148;2024-01-06T12:24:58;18.70;;;10.87;;
10605;SDS011;5350;42.698;23.148;2024-01-06T12:27:25;15.97;;;10.20;;
10605;SDS011;5350;42.698;23.148;2024-01-06T12:29:52;14.10;;;8.83;;
10605;SDS011;5350;42.698;23.148;2024-01-06T12:32:19;21.90;;;11.77;;
10605;SDS011;5350;42.698;23.148;2024-01-06T12:34:46;18.70;;;10.83;;
10605;SDS011;5350;42.698;23.148;2024-01-06T12:37:14;17.67;;;10.73;;
10605;SDS011;5350;42.698;23.148;2024-01-06T12:39:43;11.57;;;8.40;;
10605;SDS011;5350;42.698;23.148;2024-01-06T12:42:10;14.82;;;9.38;;
10605;SDS011;5350;42.698;23.148;2024-01-06T12:44:37;17.90;;;9.77;;
10605;SDS011;5350;42.698;23.148;2024-01-06T12:47:05;15.33;;;9.73;;
10605;SDS011;5350;42.698;23.148;2024-01-06T12:49:31;20.43;;;9.87;;
10605;SDS011;5350;42.698;23.148;2024-01-06T12:51:58;18.52;;;9.52;;
10605;SDS011;5350;42.698;23.148;2024-01-06T12:54:26;12.73;;;7.57;;
10605;SDS011;5350;42.698;23.148;2024-01-06T12:56:53;12.13;;;8.05;;
10605;SDS011;5350;42.698;23.148;2024-01-06T12:59:20;13.73;;;9.20;;
10605;SDS011;5350;42.698;23.148;2024-01-06T13:01:46;14.63;;;8.60;;
10605;SDS011;5350;42.698;23.148;2024-01-06T13:04:14;13.15;;;9.70;;
10605;SDS011;5350;42.698;23.148;2024-01-06T13:06:42;13.02;;;8.48;;
10605;SDS011;5350;42.698;23.148;2024-01-06T13:09:09;14.98;;;8.18;;
10605;SDS011;5350;42.698;23.148;2024-01-06T13:11:42;13.02;;;8.13;;
10605;SDS011;5350;42.698;23.148;2024-01-06T13:14:11;10.48;;;7.72;;
10605;SDS011;5350;42.698;23.148;2024-01-06T13:16:37;12.52;;;7.65;;
10605;SDS011;5350;42.698;23.148;2024-01-06T13:19:04;12.50;;;8.02;;
10605;SDS011;5350;42.698;23.148;2024-01-06T13:21:31;12.98;;;8.07;;
10605;SDS011;5350;42.698;23.148;2024-01-06T13:23:57;20.08;;;9.40;;
10605;SDS011;5350;42.698;23.148;2024-01-06T13:26:27;16.88;;;10.02;;
10605;SDS011;5350;42.698;23.148;2024-01-06T13:28:55;14.55;;;8.55;;
10605;SDS011;5350;42.698;23.148;2024-01-06T13:31:22;12.75;;;8.15;;
10605;SDS011;5350;42.698;23.148;2024-01-06T13:33:49;10.45;;;7.95;;
10605;SDS011;5350;42.698;23.148;2024-01-06T13:36:17;12.75;;;8.13;;
10605;SDS011;5350;42.698;23.148;2024-01-06T13:38:43;12.25;;;7.70;;
10605;SDS011;5350;42.698;23.148;2024-01-06T13:41:10;13.98;;;8.50;;
10605;SDS011;5350;42.698;23.148;2024-01-06T13:43:38;11.55;;;8.02;;
10605;SDS011;5350;42.698;23.148;2024-01-06T13:46:06;12.25;;;7.82;;
10605;SDS011;5350;42.698;23.148;2024-01-06T13:48:33;10.30;;;7.65;;
10605;SDS011;5350;42.698;23.148;2024-01-06T13:51:00;10.55;;;7.82;;
10605;SDS011;5350;42.698;23.148;2024-01-06T13:53:26;16.73;;;9.25;;
10605;SDS011;5350;42.698;23.148;2024-01-06T13:55:53;13.85;;;9.50;;
10605;SDS011;5350;42.698;23.148;2024-01-06T13:58:20;13.40;;;8.50;;
10605;SDS011;5350;42.698;23.148;2024-01-06T14:00:47;13.23;;;10.02;;
10605;SDS011;5350;42.698;23.148;2024-01-06T14:03:15;14.73;;;9.73;;
10605;SDS011;5350;42.698;23.148;2024-01-06T14:05:42;15.27;;;9.88;;
10605;SDS011;5350;42.698;23.148;2024-01-06T14:08:09;15.45;;;10.30;;
10605;SDS011;5350;42.698;23.148;2024-01-06T14:10:36;14.00;;;10.23;;
10605;SDS011;5350;42.698;23.148;2024-01-06T14:13:03;17.55;;;10.75;;
10605;SDS011;5350;42.698;23.148;2024-01-06T14:15:30;11.68;;;8.90;;
10605;SDS011;5350;42.698;23.148;2024-01-06T14:17:58;15.73;;;9.27;;
10605;SDS011;5350;42.698;23.148;2024-01-06T14:20:26;11.52;;;6.63;;
10605;SDS011;5350;42.698;23.148;2024-01-06T14:22:54;16.17;;;5.77;;
10605;SDS011;5350;42.698;23.148;2024-01-06T14:25:20;11.60;;;6.63;;
10605;SDS011;5350;42.698;23.148;2024-01-06T14:27:47;18.15;;;12.60;;
10605;SDS011;5350;42.698;23.148;2024-01-06T14:30:14;24.47;;;13.03;;
10605;SDS011;5350;42.698;23.148;2024-01-06T14:32:41;19.67;;;14.27;;
10605;SDS011;5350;42.698;23.148;2024-01-06T14:35:08;17.73;;;12.90;;